Time;durP1;ratioP1;P1;durP2;ratioP2;P2;SDS_P1;SDS_P2;PMS_P1;PMS_P2;Temp;Humidity;BMP_temperature;BMP_pressure;BME280_temperature;BME280_humidity;BME280_pressure;Samples;Min_cycle;Max_cycle;Signal;HPM_P1;HPM_P2
2022/05/19 00:02:19;;;;;;;5.28;2.28;;;11.80;99.90;;;;;;5109686;27;20430;-87
2022/05/19 00:04:47;;;;;;;8.73;2.47;;;12.00;99.90;;;;;;5109158;28;20398;-87
2022/05/19 00:07:14;;;;;;;4.63;2.10;;;12.20;99.90;;;;;;5109447;28;20371;-87
2022/05/19 00:09:42;;;;;;;8.00;2.10;;;12.30;99.90;;;;;;5109137;28;20375;-87
2022/05/19 00:12:16;;;;;;;6.43;2.28;;;12.50;99.90;;;;;;5109399;28;20445;-87
2022/05/19 00:14:44;;;;;;;4.68;1.95;;;12.50;99.90;;;;;;5109308;28;20386;-87
2022/05/19 00:17:11;;;;;;;4.97;2.00;;;12.60;99.90;;;;;;5109116;28;20469;-87
2022/05/19 00:19:38;;;;;;;3.97;1.90;;;12.60;99.90;;;;;;5108907;28;20394;-87
2022/05/19 00:22:05;;;;;;;9.88;2.08;;;12.70;99.90;;;;;;5108439;28;20375;-87
2022/05/19 00:24:32;;;;;;;5.40;2.00;;;12.70;99.90;;;;;;5108325;28;20406;-87
2022/05/19 00:27:00;;;;;;;4.55;1.85;;;12.70;99.90;;;;;;5108247;28;20383;-88
2022/05/19 00:29:27;;;;;;;4.97;1.65;;;12.70;99.90;;;;;;5108400;27;20370;-87
2022/05/19 00:31:55;;;;;;;3.10;1.73;;;12.70;99.90;;;;;;5108347;28;20780;-88
2022/05/19 00:34:22;;;;;;;4.22;2.20;;;12.60;99.90;;;;;;5107813;28;20902;-87
2022/05/19 00:36:49;;;;;;;5.43;2.42;;;12.70;99.90;;;;;;5106609;28;20461;-87
2022/05/19 00:39:16;;;;;;;4.82;2.20;;;12.70;99.90;;;;;;5107943;28;20854;-87
2022/05/19 00:41:45;;;;;;;6.40;2.30;;;12.60;99.90;;;;;;5109290;28;20386;-87
2022/05/19 00:44:13;;;;;;;3.60;1.90;;;12.70;99.90;;;;;;5107445;28;20504;-87
2022/05/19 00:46:45;;;;;;;8.25;2.40;;;12.90;99.90;;;;;;5107696;28;20371;-88
2022/05/19 00:49:41;;;;;;;3.43;1.70;;;13.10;99.90;;;;;;5106285;28;20391;-88
2022/05/19 00:52:41;;;;;;;3.03;1.40;;;13.30;98.90;;;;;;5103785;27;20383;-88
2022/05/19 00:55:20;;;;;;;3.40;1.27;;;13.40;98.20;;;;;;5107806;27;20966;-88
2022/05/19 00:58:05;;;;;;;3.07;1.27;;;13.70;95.60;;;;;;5106551;28;20373;-87
2022/05/19 01:00:32;;;;;;;3.05;1.05;;;13.80;97.40;;;;;;5107666;27;20431;-88
2022/05/19 01:03:01;;;;;;;3.10;1.37;;;13.90;95.50;;;;;;5106315;28;20443;-87
2022/05/19 01:05:40;;;;;;;3.70;1.30;;;14.00;95.60;;;;;;5107612;28;20370;-87
2022/05/19 01:08:40;;;;;;;3.83;1.20;;;14.20;93.80;;;;;;5106390;28;20400;-88
2022/05/19 01:11:08;;;;;;;2.92;1.08;;;14.30;93.70;;;;;;5107287;28;20374;-88
2022/05/19 01:13:35;;;;;;;3.27;1.10;;;14.40;93.60;;;;;;5106188;28;20407;-88
2022/05/19 01:16:06;;;;;;;2.92;1.20;;;14.60;92.90;;;;;;5107435;28;20426;-87
2022/05/19 01:18:35;;;;;;;2.63;1.10;;;14.90;94.00;;;;;;5106137;28;20382;-87
2022/05/19 01:21:03;;;;;;;5.22;1.35;;;15.10;92.10;;;;;;5107370;28;20367;-87
2022/05/19 01:23:47;;;;;;;3.00;1.00;;;15.30;92.70;;;;;;5107327;28;20851;-88
2022/05/19 01:26:40;;;;;;;1.77;0.90;;;15.50;92.00;;;;;;5107449;28;20881;-87
2022/05/19 01:29:10;;;;;;;3.70;0.98;;;15.70;90.60;;;;;;5107063;28;20794;-87
2022/05/19 01:31:44;;;;;;;3.17;0.90;;;15.80;90.60;;;;;;5114806;28;20869;-86
2022/05/19 01:34:11;;;;;;;2.80;0.93;;;15.60;91.30;;;;;;5115332;28;20418;-87
2022/05/19 01:36:38;;;;;;;2.20;0.90;;;15.70;92.40;;;;;;5108003;28;20481;-87
2022/05/19 01:39:15;;;;;;;3.28;0.88;;;15.80;90.70;;;;;;5109064;28;20367;-87
2022/05/19 01:42:09;;;;;;;3.25;0.80;;;15.80;91.00;;;;;;5107212;28;20365;-88
2022/05/19 01:44:42;;;;;;;2.35;0.80;;;15.70;89.90;;;;;;5107114;28;20486;-87
2022/05/19 01:47:26;;;;;;;2.53;0.80;;;15.80;90.00;;;;;;5106983;28;20425;-87
2022/05/19 01:50:05;;;;;;;3.00;0.75;;;15.70;90.30;;;;;;5105676;28;20396;-87
2022/05/19 01:52:51;;;;;;;3.47;0.90;;;16.00;90.90;;;;;;5107228;28;20918;-87
2022/05/19 01:55:42;;;;;;;2.83;0.70;;;16.10;84.20;;;;;;5107541;28;20406;-87
2022/05/19 01:58:21;;;;;;;3.00;0.70;;;16.20;84.80;;;;;;5110126;28;20366;-87
2022/05/19 02:00:53;;;;;;;3.35;0.75;;;16.10;80.60;;;;;;5118710;28;20371;-86
2022/05/19 02:03:38;;;;;;;4.90;0.80;;;16.00;82.00;;;;;;5114939;28;20457;-87
2022/05/19 02:06:19;;;;;;;3.35;0.90;;;15.90;83.30;;;;;;5122128;28;20374;-86
2022/05/19 02:08:51;;;;;;;2.28;0.70;;;15.90;81.70;;;;;;5119042;28;20388;-87
2022/05/19 02:11:29;;;;;;;3.85;1.00;;;16.00;82.10;;;;;;5112668;28;20374;-87
2022/05/19 02:14:00;;;;;;;7.53;1.00;;;16.20;79.80;;;;;;5111523;28;20398;-87
2022/05/19 02:16:32;;;;;;;5.40;1.00;;;16.40;81.20;;;;;;5111509;28;20761;-88
2022/05/19 02:18:59;;;;;;;2.10;0.70;;;16.60;76.60;;;;;;5111380;28;20372;-87
2022/05/19 02:21:27;;;;;;;3.63;0.70;;;16.60;75.10;;;;;;5109960;28;20382;-88
2022/05/19 02:24:01;;;;;;;5.65;0.80;;;16.50;72.20;;;;;;5111187;28;20714;-86
2022/05/19 02:26:33;;;;;;;3.45;0.88;;;16.40;72.20;;;;;;5110866;28;20371;-87
2022/05/19 02:29:06;;;;;;;1.90;0.80;;;16.50;76.90;;;;;;5110713;28;20784;-87
2022/05/19 02:31:36;;;;;;;4.53;0.90;;;16.50;75.50;;;;;;5110700;28;20387;-86
2022/05/19 02:34:03;;;;;;;2.35;0.68;;;16.50;73.20;;;;;;5110487;28;20411;-87
2022/05/19 02:36:30;;;;;;;2.28;0.70;;;16.40;71.10;;;;;;5110667;28;20391;-87
2022/05/19 02:38:57;;;;;;;2.88;0.70;;;16.50;72.00;;;;;;5109156;28;20378;-86
2022/05/19 02:41:24;;;;;;;1.98;0.70;;;16.40;68.40;;;;;;5110700;28;20404;-87
2022/05/19 02:43:51;;;;;;;1.15;0.50;;;16.40;67.90;;;;;;5110274;28;20367;-86
2022/05/19 02:46:18;;;;;;;5.77;0.73;;;16.50;68.80;;;;;;5110375;28;20377;-86
2022/05/19 02:48:45;;;;;;;1.37;0.50;;;16.60;66.60;;;;;;5110253;28;20402;-86
2022/05/19 02:51:12;;;;;;;1.60;0.50;;;16.80;64.30;;;;;;5110045;28;20383;-86
2022/05/19 02:53:39;;;;;;;1.27;0.50;;;17.00;63.70;;;;;;5108812;28;20374;-87
2022/05/19 02:56:06;;;;;;;1.20;0.57;;;17.10;62.50;;;;;;5110337;28;20871;-86
2022/05/19 02:58:32;;;;;;;3.53;0.60;;;17.20;63.20;;;;;;5110085;28;20374;-86
2022/05/19 03:01:00;;;;;;;1.80;0.68;;;17.10;62.70;;;;;;5109933;28;20761;-87
2022/05/19 03:03:27;;;;;;;2.33;0.60;;;17.10;63.60;;;;;;5109907;28;20740;-86
2022/05/19 03:05:53;;;;;;;3.47;0.70;;;17.40;63.40;;;;;;5109900;28;20371;-86
2022/05/19 03:08:20;;;;;;;3.77;0.90;;;17.40;62.20;;;;;;5109417;28;20505;-87
2022/05/19 03:10:48;;;;;;;2.78;0.68;;;17.30;62.60;;;;;;5109837;28;20375;-86
2022/05/19 03:13:18;;;;;;;3.70;0.70;;;17.20;62.40;;;;;;5109653;28;20371;-87
2022/05/19 03:15:45;;;;;;;5.82;0.85;;;17.30;61.80;;;;;;5109558;27;20910;-86
2022/05/19 03:18:12;;;;;;;2.60;0.60;;;17.50;62.50;;;;;;5109633;28;20375;-88
2022/05/19 03:20:39;;;;;;;3.60;0.60;;;17.60;61.10;;;;;;5108391;28;20450;-87
2022/05/19 03:23:06;;;;;;;2.33;0.60;;;17.80;58.20;;;;;;5109667;28;20410;-86
2022/05/19 03:25:33;;;;;;;2.70;0.50;;;17.60;58.20;;;;;;5109368;28;20371;-86
2022/05/19 03:28:00;;;;;;;1.80;0.60;;;17.60;58.30;;;;;;5109312;28;20379;-87
2022/05/19 03:30:27;;;;;;;1.67;0.52;;;17.80;57.90;;;;;;5109328;28;20373;-86
2022/05/19 03:32:54;;;;;;;1.83;0.60;;;17.90;57.70;;;;;;5109225;28;20378;-86
2022/05/19 03:35:21;;;;;;;1.38;0.50;;;17.70;55.30;;;;;;5108898;28;20499;-86
2022/05/19 03:37:48;;;;;;;2.60;0.52;;;17.60;56.30;;;;;;5109405;28;20876;-86
2022/05/19 03:40:16;;;;;;;6.88;0.90;;;17.50;58.30;;;;;;5109141;28;20430;-87
2022/05/19 03:42:44;;;;;;;3.78;0.80;;;17.50;59.20;;;;;;5109231;28;20780;-87
2022/05/19 03:45:11;;;;;;;4.85;0.63;;;18.20;57.50;;;;;;5108914;28;20363;-87
2022/05/19 03:47:38;;;;;;;2.50;0.70;;;18.50;55.40;;;;;;5109177;28;20371;-87
2022/05/19 03:50:05;;;;;;;2.55;0.60;;;18.60;55.40;;;;;;5108969;28;20440;-87
2022/05/19 03:52:35;;;;;;;2.90;0.68;;;18.60;55.20;;;;;;5109082;28;20383;-87
2022/05/19 03:55:02;;;;;;;3.63;0.88;;;18.40;57.50;;;;;;5108789;28;20495;-86
2022/05/19 03:57:29;;;;;;;2.78;0.70;;;18.20;58.90;;;;;;5107413;28;20391;-87
2022/05/19 03:59:56;;;;;;;4.07;0.68;;;18.10;57.40;;;;;;5108758;28;20424;-87
2022/05/19 04:02:23;;;;;;;3.35;0.88;;;17.80;58.10;;;;;;5108859;28;20382;-87
2022/05/19 04:04:50;;;;;;;1.75;0.70;;;17.60;57.00;;;;;;5108785;28;20389;-86
2022/05/19 04:07:17;;;;;;;3.22;0.70;;;17.50;57.90;;;;;;5108758;28;20367;-88
2022/05/19 04:09:44;;;;;;;3.10;0.70;;;17.70;57.20;;;;;;5114674;28;20807;-87
2022/05/19 04:12:11;;;;;;;2.53;0.80;;;17.80;57.60;;;;;;5108585;28;20415;-86
2022/05/19 04:14:38;;;;;;;3.22;0.80;;;18.00;56.50;;;;;;5108367;28;20923;-87
2022/05/19 04:17:05;;;;;;;2.65;0.80;;;18.10;56.20;;;;;;5108372;28;20371;-87
2022/05/19 04:19:32;;;;;;;2.70;0.70;;;18.10;56.00;;;;;;5107453;28;20371;-87
2022/05/19 04:21:59;;;;;;;1.65;0.60;;;18.00;56.60;;;;;;5108412;28;20506;-86
2022/05/19 04:24:26;;;;;;;2.80;0.80;;;17.80;59.10;;;;;;5108177;28;20415;-87
2022/05/19 04:26:53;;;;;;;3.53;0.80;;;17.60;58.60;;;;;;5108501;28;20394;-88
2022/05/19 04:29:20;;;;;;;4.00;0.75;;;17.60;59.10;;;;;;5108432;28;20379;-87
2022/05/19 04:31:47;;;;;;;2.28;0.80;;;17.70;57.70;;;;;;5108367;28;20371;-87
2022/05/19 04:34:14;;;;;;;2.28;0.70;;;17.80;56.20;;;;;;5108014;28;20403;-87
2022/05/19 04:36:41;;;;;;;4.07;0.60;;;17.90;55.20;;;;;;5108147;28;20371;-88
2022/05/19 04:39:08;;;;;;;1.00;0.40;;;17.90;55.90;;;;;;5107711;28;20371;-86
2022/05/19 04:41:36;;;;;;;2.13;0.50;;;17.90;56.60;;;;;;5108033;28;20371;-86
2022/05/19 04:44:04;;;;;;;1.35;0.50;;;18.00;56.80;;;;;;5108019;28;20429;-87
2022/05/19 04:46:31;;;;;;;2.35;0.50;;;18.20;56.80;;;;;;5108347;28;20374;-88
2022/05/19 04:48:57;;;;;;;1.50;0.60;;;18.30;56.10;;;;;;5111087;28;20723;-86
2022/05/19 04:51:24;;;;;;;1.25;0.68;;;18.30;54.80;;;;;;5110942;28;20819;-86
2022/05/19 04:53:51;;;;;;;2.92;0.70;;;18.30;53.80;;;;;;5108946;27;20379;-87
2022/05/19 04:56:18;;;;;;;6.20;0.90;;;18.50;54.80;;;;;;5106906;28;20375;-86
2022/05/19 04:58:45;;;;;;;5.78;0.80;;;18.60;54.30;;;;;;5107951;28;20405;-86
2022/05/19 05:01:12;;;;;;;4.35;0.63;;;18.60;54.60;;;;;;5107639;28;20889;-87
2022/05/19 05:03:39;;;;;;;3.75;0.70;;;18.50;54.20;;;;;;5107773;28;20378;-86
2022/05/19 05:06:06;;;;;;;3.30;0.70;;;18.40;54.80;;;;;;5107368;28;20431;-87
2022/05/19 05:08:33;;;;;;;6.85;0.90;;;18.40;55.40;;;;;;5107529;28;20425;-86
2022/05/19 05:11:00;;;;;;;4.28;0.90;;;18.60;55.40;;;;;;5107437;28;20377;-87
2022/05/19 05:13:27;;;;;;;13.52;1.10;;;18.70;54.50;;;;;;5106197;28;20374;-87
2022/05/19 05:15:54;;;;;;;5.72;1.00;;;18.40;56.00;;;;;;5105892;28;20394;-87
2022/05/19 05:18:21;;;;;;;4.65;1.10;;;18.20;56.20;;;;;;5107462;28;20458;-87
2022/05/19 05:20:48;;;;;;;2.45;0.70;;;18.10;57.10;;;;;;5105866;28;20388;-86
2022/05/19 05:23:15;;;;;;;2.65;0.70;;;17.90;56.70;;;;;;5107404;28;20780;-86
2022/05/19 05:25:42;;;;;;;1.40;0.63;;;17.80;57.80;;;;;;5107156;28;20877;-86
2022/05/19 05:28:09;;;;;;;1.67;0.80;;;17.70;57.70;;;;;;5107271;28;20403;-86
2022/05/19 05:30:37;;;;;;;3.05;0.80;;;17.60;58.40;;;;;;5107080;28;20402;-86
2022/05/19 05:33:09;;;;;;;2.03;0.67;;;17.50;59.00;;;;;;5107538;28;20370;-87
2022/05/19 05:35:36;;;;;;;2.00;0.80;;;17.30;59.90;;;;;;5107231;28;20414;-86
2022/05/19 05:38:03;;;;;;;3.05;0.90;;;17.30;60.20;;;;;;5107226;28;20366;-87
2022/05/19 05:40:30;;;;;;;2.78;1.00;;;17.20;60.40;;;;;;5107112;28;20375;-86
2022/05/19 05:43:08;;;;;;;2.03;0.73;;;17.30;60.20;;;;;;5107194;28;20432;-86
2022/05/19 05:45:36;;;;;;;4.40;1.10;;;17.30;59.90;;;;;;5107127;28;20420;-86
2022/05/19 05:48:03;;;;;;;1.00;0.80;;;17.30;60.60;;;;;;5105941;28;20438;-86
2022/05/19 05:50:30;;;;;;;2.53;0.90;;;17.40;60.20;;;;;;5107206;28;20457;-85
2022/05/19 05:52:57;;;;;;;2.28;1.55;;;17.30;60.70;;;;;;5107078;28;20382;-85
2022/05/19 05:55:24;;;;;;;2.90;1.17;;;17.20;60.50;;;;;;5107322;28;20572;-85
2022/05/19 05:57:51;;;;;;;2.40;1.00;;;17.00;60.60;;;;;;5107430;28;20818;-85
2022/05/19 06:00:19;;;;;;;2.10;0.80;;;16.90;61.50;;;;;;5107093;28;20370;-85
2022/05/19 06:02:48;;;;;;;2.33;0.80;;;16.70;60.80;;;;;;5107051;28;20379;-86
2022/05/19 06:05:16;;;;;;;2.88;0.80;;;16.50;60.40;;;;;;5105421;28;20390;-86
2022/05/19 06:07:43;;;;;;;1.85;0.75;;;16.40;61.90;;;;;;5107006;28;20366;-86
2022/05/19 06:10:12;;;;;;;2.33;0.90;;;16.20;64.10;;;;;;5106897;28;20367;-87
2022/05/19 06:12:40;;;;;;;2.00;1.00;;;16.00;65.00;;;;;;5106733;28;20423;-86
2022/05/19 06:15:09;;;;;;;1.73;0.70;;;15.80;66.60;;;;;;5106766;28;20402;-86
2022/05/19 06:17:39;;;;;;;2.80;0.75;;;15.60;67.90;;;;;;5106839;28;20842;-86
2022/05/19 06:20:10;;;;;;;4.00;0.80;;;15.40;68.70;;;;;;5106700;28;20370;-86
2022/05/19 06:22:38;;;;;;;3.22;0.80;;;15.20;69.90;;;;;;5106775;28;20426;-86
2022/05/19 06:25:06;;;;;;;2.67;1.00;;;15.10;70.90;;;;;;5106572;28;20730;-86
2022/05/19 06:27:33;;;;;;;3.53;1.00;;;15.00;72.10;;;;;;5106781;28;20480;-86
2022/05/19 06:30:00;;;;;;;3.83;1.08;;;14.90;73.30;;;;;;5107025;28;20379;-86
2022/05/19 06:32:27;;;;;;;7.23;1.30;;;14.80;74.50;;;;;;5106488;28;20371;-87
2022/05/19 06:34:54;;;;;;;5.90;1.20;;;14.70;74.20;;;;;;5106439;28;20406;-87
2022/05/19 06:37:21;;;;;;;6.75;1.17;;;14.70;74.20;;;;;;5106647;28;20400;-87
2022/05/19 06:39:48;;;;;;;3.60;1.10;;;14.70;74.10;;;;;;5106868;28;20367;-87
2022/05/19 06:42:15;;;;;;;4.13;1.13;;;14.60;75.50;;;;;;5108373;28;20405;-86
2022/05/19 06:44:43;;;;;;;4.22;1.00;;;14.60;75.60;;;;;;5110325;27;20371;-87
2022/05/19 06:47:15;;;;;;;3.92;1.20;;;14.60;76.10;;;;;;5108946;28;20719;-87
2022/05/19 06:49:45;;;;;;;4.20;1.23;;;14.50;76.90;;;;;;5110214;28;20378;-87
2022/05/19 06:52:19;;;;;;;4.70;1.27;;;14.30;78.10;;;;;;5109982;28;20379;-88
2022/05/19 06:54:51;;;;;;;4.80;1.38;;;14.10;79.50;;;;;;5110054;28;20447;-87
2022/05/19 06:57:22;;;;;;;5.22;1.38;;;14.00;80.90;;;;;;5110330;28;20373;-87
2022/05/19 06:59:53;;;;;;;5.45;1.40;;;13.80;82.50;;;;;;5109220;28;20729;-86
2022/05/19 07:02:22;;;;;;;2.78;1.15;;;13.70;84.20;;;;;;5110346;28;20383;-86
2022/05/19 07:04:52;;;;;;;3.50;1.42;;;13.50;86.80;;;;;;5110052;28;20367;-87
2022/05/19 07:07:19;;;;;;;5.40;1.30;;;13.40;88.40;;;;;;5110223;28;20459;-87
2022/05/19 07:09:47;;;;;;;3.30;1.35;;;13.30;90.20;;;;;;5110857;28;20375;-87
2022/05/19 07:12:24;;;;;;;6.95;1.38;;;13.10;91.10;;;;;;5108864;28;20457;-87
2022/05/19 07:14:52;;;;;;;4.45;1.30;;;13.00;91.50;;;;;;5110093;28;20398;-87
2022/05/19 07:17:19;;;;;;;5.50;1.65;;;12.90;92.20;;;;;;5111119;28;20377;-87
2022/05/19 07:22:34;;;;;;;8.63;1.98;;;12.80;93.50;;;;;;5110503;28;20419;-87
2022/05/19 07:25:03;;;;;;;8.38;1.70;;;12.70;94.30;;;;;;5118628;28;20378;-87
2022/05/19 07:27:30;;;;;;;4.88;1.60;;;12.60;94.60;;;;;;5130038;28;20401;-87
2022/05/19 07:29:59;;;;;;;5.70;1.60;;;12.60;94.90;;;;;;5127849;28;20395;-88
2022/05/19 07:32:26;;;;;;;6.38;1.50;;;12.50;95.10;;;;;;5106891;28;20379;-87
2022/05/19 07:34:56;;;;;;;6.50;2.10;;;12.50;95.50;;;;;;5109104;28;20417;-89
2022/05/19 07:37:24;;;;;;;4.45;1.70;;;12.50;95.80;;;;;;5113177;28;20386;-88
2022/05/19 07:39:52;;;;;;;5.90;1.70;;;12.40;95.90;;;;;;5108456;28;20817;-88
2022/05/19 07:42:20;;;;;;;5.65;1.55;;;12.40;96.20;;;;;;5109595;28;21014;-88
2022/05/19 07:44:48;;;;;;;5.38;1.60;;;12.30;96.40;;;;;;5108281;28;20404;-88
2022/05/19 07:47:15;;;;;;;4.85;1.50;;;12.30;96.60;;;;;;5121395;27;20411;-88
2022/05/19 07:49:42;;;;;;;5.80;1.63;;;12.30;97.00;;;;;;5117904;28;20735;-87
2022/05/19 07:52:10;;;;;;;6.82;1.52;;;12.20;97.40;;;;;;5122373;28;20743;-86
2022/05/19 07:54:40;;;;;;;4.28;1.35;;;12.20;97.80;;;;;;5124943;28;20400;-88
2022/05/19 07:57:28;;;;;;;5.35;1.50;;;12.20;98.10;;;;;;5120068;28;20456;-88
2022/05/19 07:59:55;;;;;;;5.47;1.60;;;12.20;98.30;;;;;;5121526;28;20408;-88
2022/05/19 08:02:22;;;;;;;3.45;1.70;;;12.20;98.80;;;;;;5124430;28;20366;-86
2022/05/19 08:04:49;;;;;;;5.45;1.80;;;12.20;99.20;;;;;;5120228;28;20432;-88
2022/05/19 08:07:16;;;;;;;3.13;1.90;;;12.10;99.30;;;;;;5118825;28;20378;-88
2022/05/19 08:15:35;;;;;;;4.68;2.13;;;11.90;99.90;;;;;;5111492;28;20402;-88
2022/05/19 08:18:09;;;;;;;5.10;1.90;;;11.90;99.90;;;;;;5112178;28;20414;-85
2022/05/19 08:20:39;;;;;;;5.45;1.90;;;11.80;99.90;;;;;;5109438;28;20457;-86
2022/05/19 08:23:08;;;;;;;3.30;1.80;;;11.80;99.90;;;;;;5108679;28;20853;-87
2022/05/19 08:25:35;;;;;;;5.20;1.70;;;11.70;99.90;;;;;;5110114;28;20396;-86
2022/05/19 08:28:02;;;;;;;3.55;1.60;;;11.70;99.90;;;;;;5109808;28;20420;-86
2022/05/19 08:30:29;;;;;;;3.00;1.70;;;11.60;99.90;;;;;;5108737;28;20379;-86
2022/05/19 08:32:57;;;;;;;4.47;1.70;;;11.60;99.90;;;;;;5110403;27;20401;-88
2022/05/19 08:35:24;;;;;;;2.35;1.40;;;11.60;99.90;;;;;;5111218;28;20505;-88
2022/05/19 08:37:52;;;;;;;3.78;1.50;;;11.50;99.90;;;;;;5109654;28;20398;-87
2022/05/19 08:40:20;;;;;;;4.00;1.48;;;11.50;99.90;;;;;;5109515;28;20412;-91
2022/05/19 08:42:53;;;;;;;5.10;1.60;;;11.50;99.90;;;;;;5108258;28;20440;-88
2022/05/19 08:45:41;;;;;;;4.80;1.80;;;11.50;99.90;;;;;;5108956;28;20850;-89
2022/05/19 08:48:19;;;;;;;3.90;1.80;;;11.40;99.90;;;;;;5108718;27;20383;-86
2022/05/19 08:51:07;;;;;;;4.63;1.90;;;11.40;99.90;;;;;;5108583;28;20386;-85
2022/05/19 08:53:37;;;;;;;3.38;1.63;;;11.40;99.90;;;;;;5107828;28;20371;-87
2022/05/19 08:56:48;;;;;;;3.30;1.50;;;11.40;99.90;;;;;;5109031;28;20448;-87
2022/05/19 08:59:39;;;;;;;4.32;1.58;;;11.40;99.90;;;;;;5110966;28;20840;-88
2022/05/19 09:02:13;;;;;;;2.13;1.40;;;11.40;99.90;;;;;;5111281;28;20370;-88
2022/05/19 09:04:47;;;;;;;4.43;1.50;;;11.30;99.90;;;;;;5109879;28;20734;-88
2022/05/19 09:07:59;;;;;;;2.83;1.30;;;11.40;99.90;;;;;;5112860;28;20493;-87
2022/05/19 09:10:46;;;;;;;4.05;1.50;;;11.30;99.90;;;;;;5068508;28;20381;-86
2022/05/19 09:13:22;;;;;;;3.28;1.60;;;11.30;99.90;;;;;;5050155;28;20409;-87
2022/05/19 09:15:49;;;;;;;2.85;1.30;;;11.30;99.90;;;;;;5068364;28;20417;-84
2022/05/19 09:18:20;;;;;;;3.20;1.40;;;11.30;99.90;;;;;;5051255;28;20445;-86
2022/05/19 09:20:56;;;;;;;2.93;1.60;;;11.30;99.90;;;;;;5066735;28;20445;-87
2022/05/19 09:23:24;;;;;;;4.68;1.60;;;11.30;99.90;;;;;;5067250;28;20503;-87
2022/05/19 09:25:56;;;;;;;4.78;1.80;;;11.30;99.90;;;;;;5065681;28;20938;-88
2022/05/19 09:28:23;;;;;;;4.10;1.60;;;11.20;99.90;;;;;;5066344;28;20385;-89
2022/05/19 09:30:56;;;;;;;6.20;2.10;;;11.20;99.90;;;;;;5065961;28;20381;-87
2022/05/19 09:33:34;;;;;;;5.72;2.17;;;11.10;99.90;;;;;;5066747;28;20482;-85
2022/05/19 09:36:11;;;;;;;9.15;2.95;;;11.10;99.90;;;;;;5050186;28;20437;-87
2022/05/19 09:38:46;;;;;;;14.27;3.42;;;11.10;99.90;;;;;;5065791;28;20374;-89
2022/05/19 09:41:34;;;;;;;15.38;3.20;;;11.10;99.90;;;;;;5048685;28;20755;-87
2022/05/19 09:44:04;;;;;;;9.48;2.40;;;10.90;99.90;;;;;;5065704;28;20445;-86
2022/05/19 09:46:52;;;;;;;8.77;2.25;;;10.80;99.90;;;;;;5077170;28;20406;-87
2022/05/19 09:49:25;;;;;;;12.10;2.55;;;10.70;99.90;;;;;;5108001;28;20398;-87
2022/05/19 09:51:53;;;;;;;11.52;2.50;;;10.70;99.90;;;;;;5108201;28;20375;-86
2022/05/19 09:54:23;;;;;;;10.52;2.45;;;10.60;99.90;;;;;;5106172;28;20390;-87
2022/05/19 09:56:52;;;;;;;7.43;2.50;;;10.60;99.90;;;;;;5107663;28;20378;-85
2022/05/19 09:59:32;;;;;;;7.82;2.30;;;10.50;99.90;;;;;;5107377;28;20463;-86
2022/05/19 10:02:16;;;;;;;9.82;2.70;;;10.50;99.90;;;;;;5107688;28;20453;-86
2022/05/19 10:04:54;;;;;;;17.27;3.35;;;10.50;99.90;;;;;;5107593;28;20363;-87
2022/05/19 10:07:27;;;;;;;11.03;2.90;;;10.60;99.90;;;;;;5108202;28;20450;-86
2022/05/19 10:09:57;;;;;;;10.95;3.20;;;10.60;99.90;;;;;;5106247;28;20402;-88
2022/05/19 10:12:28;;;;;;;13.27;3.63;;;10.50;99.90;;;;;;5107835;28;20371;-87
2022/05/19 10:15:04;;;;;;;12.85;3.50;;;10.50;99.90;;;;;;5106538;28;20407;-86
2022/05/19 10:17:44;;;;;;;9.88;3.08;;;10.60;99.90;;;;;;5109907;28;20377;-87
2022/05/19 10:20:32;;;;;;;10.57;3.00;;;10.50;99.90;;;;;;5111326;28;20355;-87
2022/05/19 10:23:05;;;;;;;9.45;3.85;;;10.60;99.90;;;;;;5110290;28;20446;-87
2022/05/19 10:25:47;;;;;;;10.45;3.15;;;10.50;99.90;;;;;;5111749;28;20375;-87
2022/05/19 10:31:31;;;;;;;7.25;2.97;;;10.40;99.90;;;;;;5111125;28;20474;-88
2022/05/19 10:34:20;;;;;;;7.28;2.90;;;10.20;99.90;;;;;;5111282;28;20383;-86
2022/05/19 10:36:56;;;;;;;10.23;3.53;;;10.20;99.90;;;;;;5111686;28;20870;-87
2022/05/19 10:39:42;;;;;;;11.18;4.70;;;10.10;99.90;;;;;;5111532;28;20355;-88
2022/05/19 10:42:36;;;;;;;11.43;5.50;;;10.00;99.90;;;;;;5112346;28;20877;-87
2022/05/19 10:45:17;;;;;;;9.40;4.18;;;9.90;99.90;;;;;;5111806;28;20382;-89
2022/05/19 10:47:47;;;;;;;7.47;3.30;;;9.80;99.90;;;;;;5111693;28;20370;-89
2022/05/19 10:50:47;;;;;;;9.77;3.35;;;9.70;99.90;;;;;;5109754;28;20523;-86
2022/05/19 10:53:42;;;;;;;8.02;3.90;;;9.60;99.90;;;;;;5109072;28;20402;-85
2022/05/19 10:56:54;;;;;;;9.03;3.90;;;9.50;99.90;;;;;;5109168;28;20769;-87
2022/05/19 10:59:42;;;;;;;10.10;4.47;;;9.50;99.90;;;;;;5109474;28;20376;-86
2022/05/19 11:02:46;;;;;;;8.05;3.85;;;9.70;99.90;;;;;;5111069;28;20369;-87
2022/05/19 11:05:43;;;;;;;10.50;5.82;;;9.70;99.90;;;;;;5112144;28;20367;-88
2022/05/19 11:08:37;;;;;;;10.30;5.65;;;9.80;99.90;;;;;;5110464;28;20370;-88
2022/05/19 11:11:09;;;;;;;9.63;5.60;;;9.90;99.90;;;;;;5112542;28;20363;-88
2022/05/19 11:14:07;;;;;;;14.50;6.28;;;9.90;99.90;;;;;;5112091;28;20375;-87
2022/05/19 11:17:26;;;;;;;12.93;6.38;;;9.90;99.90;;;;;;5111768;28;20460;-86
2022/05/19 11:20:21;;;;;;;12.20;5.90;;;9.90;99.90;;;;;;5069927;28;20494;-86
2022/05/19 11:22:56;;;;;;;18.75;7.78;;;9.80;99.90;;;;;;5044740;28;20401;-86
2022/05/19 11:28:40;;;;;;;14.20;7.18;;;9.70;99.90;;;;;;5074481;28;20433;-87
2022/05/19 11:31:32;;;;;;;16.77;7.32;;;9.60;99.90;;;;;;5067344;28;20389;-86
2022/05/19 11:34:05;;;;;;;13.80;7.27;;;9.50;99.90;;;;;;5067002;28;20480;-86
2022/05/19 11:36:43;;;;;;;10.95;6.72;;;9.40;99.90;;;;;;5067363;28;20386;-86
2022/05/19 11:39:27;;;;;;;12.52;6.68;;;9.40;99.90;;;;;;5067456;28;20366;-89
2022/05/19 11:42:00;;;;;;;9.88;5.68;;;9.30;99.90;;;;;;5067337;28;20374;-87
2022/05/19 11:44:32;;;;;;;10.40;5.80;;;9.20;99.90;;;;;;5050272;28;20800;-87
2022/05/19 11:47:10;;;;;;;10.32;5.53;;;9.10;99.90;;;;;;5067371;28;20441;-88
2022/05/19 11:55:42;;;;;;;8.57;3.80;;;8.90;99.90;;;;;;5109584;28;20482;-87
2022/05/19 11:58:22;;;;;;;8.70;3.80;;;8.80;99.90;;;;;;5109060;28;20385;-88
2022/05/19 12:01:19;;;;;;;9.23;4.28;;;8.70;99.90;;;;;;5111480;28;20383;-89
2022/05/19 12:04:18;;;;;;;8.18;4.38;;;8.70;99.90;;;;;;5108314;28;20734;-88
2022/05/19 12:06:53;;;;;;;9.83;4.80;;;8.60;99.90;;;;;;5110046;27;20818;-89
2022/05/19 12:09:39;;;;;;;14.57;7.45;;;8.60;99.90;;;;;;5091832;28;20439;-88
2022/05/19 12:12:15;;;;;;;13.95;8.30;;;8.60;99.90;;;;;;5110081;28;20396;-90
2022/05/19 12:14:50;;;;;;;16.07;7.40;;;8.60;99.90;;;;;;5109540;28;20395;-88
2022/05/19 12:17:38;;;;;;;11.23;5.50;;;8.80;99.90;;;;;;5109333;28;20913;-89
2022/05/19 12:20:37;;;;;;;10.10;6.28;;;8.80;99.90;;;;;;5108012;28;20387;-87
2022/05/19 12:23:19;;;;;;;37.53;22.05;;;8.70;99.90;;;;;;5109409;28;20373;-88
2022/05/19 12:25:49;;;;;;;58.22;33.92;;;8.50;99.90;;;;;;5109156;28;20371;-86
2022/05/19 12:28:19;;;;;;;32.83;19.90;;;8.50;99.90;;;;;;5107616;28;20636;-86
2022/05/19 12:34:00;;;;;;;12.35;8.05;;;8.40;99.90;;;;;;5109498;28;20397;-87
2022/05/19 12:36:35;;;;;;;11.52;7.93;;;8.40;99.90;;;;;;5109666;28;20387;-89
2022/05/19 12:39:14;;;;;;;13.07;9.27;;;8.40;99.90;;;;;;5109479;28;20371;-89
2022/05/19 12:41:55;;;;;;;16.65;9.35;;;8.50;99.90;;;;;;5110127;28;20371;-88
2022/05/19 12:44:41;;;;;;;13.65;6.95;;;8.60;99.90;;;;;;5110103;28;20378;-87
2022/05/19 12:47:20;;;;;;;13.88;7.50;;;8.80;99.90;;;;;;5110045;28;20367;-88
2022/05/19 12:50:03;;;;;;;10.40;6.33;;;8.90;99.90;;;;;;5110706;28;20436;-88
2022/05/19 12:52:58;;;;;;;8.83;3.70;;;9.10;99.90;;;;;;5110350;28;20388;-88
2022/05/19 12:55:25;;;;;;;10.00;5.47;;;9.20;99.90;;;;;;5109537;28;20403;-87
2022/05/19 12:57:57;;;;;;;12.52;6.13;;;9.30;99.90;;;;;;5108513;28;20399;-88
2022/05/19 13:00:44;;;;;;;11.00;5.97;;;9.50;99.90;;;;;;5109769;28;20383;-88
2022/05/19 13:03:18;;;;;;;10.02;5.72;;;9.50;99.90;;;;;;5108621;28;20379;-90
2022/05/19 13:05:52;;;;;;;10.00;4.93;;;9.40;99.90;;;;;;5108309;28;20380;-89
2022/05/19 13:08:52;;;;;;;8.52;4.40;;;9.40;99.90;;;;;;5109016;28;20406;-89
2022/05/19 13:11:36;;;;;;;8.40;3.72;;;9.30;99.90;;;;;;5107516;28;20383;-88
2022/05/19 13:14:26;;;;;;;5.45;3.15;;;9.20;99.90;;;;;;5105178;28;20434;-87
2022/05/19 13:16:55;;;;;;;5.15;2.90;;;9.20;99.90;;;;;;5108444;28;20874;-86
2022/05/19 13:19:30;;;;;;;6.38;3.20;;;9.20;99.90;;;;;;5108527;28;20389;-86
2022/05/19 13:22:06;;;;;;;6.37;3.30;;;9.10;99.90;;;;;;5108084;28;20931;-86
2022/05/19 13:24:40;;;;;;;6.97;3.53;;;9.10;99.90;;;;;;5108104;28;20854;-86
2022/05/19 13:32:40;;;;;;;7.15;3.75;;;9.00;99.90;;;;;;5108499;28;20482;-87
2022/05/19 13:35:19;;;;;;;12.90;6.47;;;9.00;99.90;;;;;;5108795;28;20876;-88
2022/05/19 13:37:48;;;;;;;10.20;4.13;;;9.00;99.90;;;;;;5108995;28;20434;-91
2022/05/19 13:40:29;;;;;;;4.90;2.00;;;9.00;99.90;;;;;;5108925;28;20387;-91
2022/05/19 13:43:01;;;;;;;6.50;2.22;;;9.10;99.90;;;;;;5108456;28;20400;-90
2022/05/19 13:45:48;;;;;;;6.60;2.28;;;9.20;99.90;;;;;;5108306;28;20876;-89
2022/05/19 13:48:28;;;;;;;13.35;2.45;;;9.20;99.90;;;;;;5108163;28;20447;-88
2022/05/19 13:50:55;;;;;;;9.55;2.60;;;9.10;99.90;;;;;;5109778;28;20793;-89